createdAt,value
2023-04-07T00:00:36.866Z,465.6923
2023-04-07T00:01:38.522Z,467.0769
2023-04-07T00:02:41.328Z,467.6154
2023-04-07T00:03:41.277Z,468.8462
2023-04-07T00:04:42.974Z,470.0769
2023-04-07T00:05:44.097Z,471.8462
2023-04-07T00:06:45.528Z,473.4615
2023-04-07T00:07:55.992Z,473.0769
2023-04-07T00:08:48.412Z,474.2308
2023-04-07T00:09:49.987Z,474.6923
2023-04-07T00:10:51.434Z,473.3077
2023-04-07T00:11:52.774Z,474.3077
2023-04-07T00:12:54.239Z,474.7692
2023-04-07T00:13:55.985Z,474.3846
2023-04-07T00:14:57.162Z,470.4615
2023-04-07T00:15:58.633Z,465.0769
2023-04-07T00:16:59.999Z,463.5385
2023-04-07T00:18:01.560Z,460.1538
2023-04-07T00:19:02.908Z,457.3077
2023-04-07T00:20:04.369Z,459.6923
2023-04-07T00:21:05.781Z,459.6154
2023-04-07T00:22:07.228Z,461.3846
2023-04-07T00:23:08.665Z,462.8462
2023-04-07T00:24:10.323Z,465.5385
2023-04-07T00:25:11.518Z,465.3846
2023-04-07T00:26:12.992Z,465.3846
2023-04-07T00:27:14.470Z,467.1538
2023-04-07T00:28:15.897Z,467.5385
2023-04-07T00:29:17.312Z,468.1538
2023-04-07T00:30:18.811Z,469.6154
2023-04-07T00:31:20.230Z,470.6923
2023-04-07T00:32:21.650Z,471.0000
2023-04-07T00:33:23.089Z,470.5385
2023-04-07T00:34:24.534Z,472.0000
2023-04-07T00:35:26.042Z,471.9231
2023-04-07T00:36:27.530Z,471.4615
2023-04-07T00:37:28.867Z,470.0769
2023-04-07T00:38:30.398Z,467.5385
2023-04-07T00:39:31.724Z,464.7692
2023-04-07T00:40:33.254Z,462.3846
2023-04-07T00:41:34.767Z,456.7692
2023-04-07T00:42:36.071Z,454.3846
2023-04-07T00:43:37.528Z,457.4615
2023-04-07T00:44:39.047Z,461.4615
2023-04-07T00:45:40.611Z,462.0769
2023-04-07T00:46:42.865Z,465.0000
2023-04-07T00:47:43.507Z,469.0000
2023-04-07T00:48:44.954Z,469.0769
2023-04-07T00:49:46.320Z,468.6154
2023-04-07T00:50:47.843Z,468.7692
2023-04-07T00:51:49.223Z,470.5385
2023-04-07T00:52:50.681Z,469.9231
2023-04-07T00:53:52.089Z,472.6154
2023-04-07T00:54:53.509Z,472.6154
2023-04-07T00:55:54.932Z,471.7692
2023-04-07T00:56:56.465Z,472.1538
2023-04-07T00:57:57.837Z,472.6154
2023-04-07T00:58:59.264Z,471.8462
2023-04-07T01:00:00.689Z,475.3846
2023-04-07T01:01:02.146Z,475.2308
2023-04-07T01:02:03.790Z,474.2308
2023-04-07T01:03:05.278Z,469.0000
2023-04-07T01:04:06.581Z,461.0769
2023-04-07T01:05:08.018Z,459.3846
2023-04-07T01:06:09.449Z,459.4615
2023-04-07T01:07:10.846Z,462.5385
2023-04-07T01:08:12.266Z,465.7692
2023-04-07T01:09:13.710Z,468.4615
2023-04-07T01:10:15.190Z,470.4615
2023-04-07T01:11:16.741Z,472.0769
2023-04-07T01:12:18.112Z,472.3846
2023-04-07T01:13:19.607Z,474.1538
2023-04-07T01:14:20.974Z,474.9231
2023-04-07T01:15:22.407Z,473.3077
2023-04-07T01:16:23.888Z,471.7692
2023-04-07T01:17:25.361Z,470.9231
2023-04-07T01:18:26.748Z,470.7692
2023-04-07T01:19:28.218Z,469.0769
2023-04-07T01:20:29.554Z,470.0769
2023-04-07T01:21:31.104Z,473.1538
2023-04-07T01:22:32.554Z,475.0769
2023-04-07T01:23:33.947Z,471.8462
2023-04-07T01:24:35.331Z,468.3077
2023-04-07T01:25:36.774Z,466.3846
2023-04-07T01:26:38.222Z,466.3077
2023-04-07T01:27:39.678Z,464.3846
2023-04-07T01:28:41.126Z,461.9231
2023-04-07T01:29:42.518Z,463.6923
2023-04-07T01:30:44.052Z,465.8462
2023-04-07T01:31:45.481Z,467.5385
2023-04-07T01:32:46.956Z,470.1538
2023-04-07T01:33:48.401Z,471.0769
2023-04-07T01:34:49.815Z,472.3077
2023-04-07T01:35:51.204Z,473.4615
2023-04-07T01:36:52.709Z,474.9231
2023-04-07T01:37:54.407Z,474.7692
2023-04-07T01:38:55.567Z,474.0000
2023-04-07T01:39:57.052Z,473.0769
2023-04-07T01:40:58.437Z,472.8462
2023-04-07T01:41:59.875Z,471.3846
2023-04-07T01:43:01.373Z,469.3077
2023-04-07T01:44:02.817Z,469.4615
2023-04-07T01:45:04.257Z,469.7692
2023-04-07T01:46:05.657Z,469.1538
2023-04-07T01:47:07.147Z,467.0769
2023-04-07T01:48:08.709Z,466.3846
2023-04-07T01:49:09.986Z,466.4615
2023-04-07T01:50:12.320Z,463.5385
2023-04-07T01:51:12.885Z,460.3077
2023-04-07T01:52:14.331Z,461.9231
2023-04-07T01:53:15.853Z,462.3077
2023-04-07T01:54:17.210Z,464.9231
2023-04-07T01:55:18.683Z,466.0769
2023-04-07T01:56:20.170Z,468.7692
2023-04-07T01:57:21.605Z,468.7692
2023-04-07T01:58:23.048Z,470.3846
2023-04-07T01:59:24.493Z,474.8462
2023-04-07T02:00:26.862Z,473.9231
2023-04-07T02:01:27.449Z,474.0769
2023-04-07T02:02:28.826Z,472.3077
2023-04-07T02:03:30.290Z,475.6154
2023-04-07T02:04:31.655Z,474.4615
2023-04-07T02:05:33.091Z,472.4615
2023-04-07T02:06:34.557Z,469.0000
2023-04-07T02:07:36.012Z,469.7692
2023-04-07T02:08:37.484Z,469.4615
2023-04-07T02:09:38.921Z,474.4615
2023-04-07T02:10:40.342Z,469.8462
2023-04-07T02:11:41.777Z,463.3846
2023-04-07T02:12:43.236Z,463.4615
2023-04-07T02:13:44.737Z,459.9231
2023-04-07T02:14:46.226Z,462.6154
2023-04-07T02:15:47.692Z,463.3077
2023-04-07T02:16:49.224Z,465.1538
2023-04-07T02:17:50.549Z,471.3846
2023-04-07T02:18:52.005Z,472.1538
2023-04-07T02:19:53.416Z,473.2308
2023-04-07T02:20:54.882Z,478.1538
2023-04-07T02:21:56.172Z,473.3077
2023-04-07T02:22:57.729Z,470.0000
2023-04-07T02:23:59.174Z,470.0000
2023-04-07T02:25:00.601Z,469.3077
2023-04-07T02:26:01.986Z,468.4615
2023-04-07T02:27:03.438Z,469.0000
2023-04-07T02:28:04.888Z,470.7692
2023-04-07T02:29:06.346Z,470.5385
2023-04-07T02:30:07.765Z,467.1538
2023-04-07T02:31:09.213Z,466.0769
2023-04-07T02:32:10.703Z,468.0000
2023-04-07T02:33:12.133Z,466.8462
2023-04-07T02:34:13.612Z,462.9231
2023-04-07T02:35:15.010Z,459.9231
2023-04-07T02:36:16.461Z,456.9231
2023-04-07T02:37:17.939Z,456.6923
2023-04-07T02:38:19.235Z,455.7692
2023-04-07T02:39:20.770Z,457.9231
2023-04-07T02:40:22.287Z,460.6923
2023-04-07T02:41:23.635Z,463.2308
2023-04-07T02:42:25.069Z,466.8462
2023-04-07T02:43:26.516Z,468.7692
2023-04-07T02:44:28.000Z,470.7692
2023-04-07T02:45:29.355Z,472.3077
2023-04-07T02:46:31.091Z,474.6923
2023-04-07T02:47:32.399Z,476.0769
2023-04-07T02:48:33.720Z,474.3846
2023-04-07T02:49:35.241Z,474.0769
2023-04-07T02:50:36.691Z,473.0769
2023-04-07T02:51:38.065Z,473.6154
2023-04-07T02:52:40.331Z,471.7692
2023-04-07T02:53:40.928Z,472.6923
2023-04-07T02:54:42.374Z,473.3077
2023-04-07T02:55:43.809Z,471.4615
2023-04-07T02:56:45.257Z,469.2308
2023-04-07T02:57:46.785Z,467.6923
2023-04-07T02:58:48.246Z,463.3077
2023-04-07T02:59:49.675Z,462.9231
2023-04-07T03:00:51.097Z,455.8462
2023-04-07T03:01:52.556Z,453.0000
2023-04-07T03:02:54.089Z,454.6923
2023-04-07T03:03:55.833Z,459.6923
2023-04-07T03:04:56.874Z,463.9231
2023-04-07T03:05:58.307Z,464.3077
2023-04-07T03:06:59.813Z,465.9231
2023-04-07T03:08:01.153Z,465.3846
2023-04-07T03:09:02.588Z,465.9231
2023-04-07T03:10:04.035Z,464.5385
2023-04-07T03:11:06.342Z,463.7692
2023-04-07T03:12:06.977Z,461.6154
2023-04-07T03:13:08.392Z,461.1538
2023-04-07T03:14:09.829Z,461.4615
2023-04-07T03:15:11.253Z,462.6923
2023-04-07T03:16:12.747Z,461.6923
2023-04-07T03:17:14.208Z,463.3077
2023-04-07T03:18:15.649Z,464.1538
2023-04-07T03:19:17.087Z,464.2308
2023-04-07T03:20:18.546Z,462.7692
2023-04-07T03:21:19.969Z,460.1538
2023-04-07T03:22:21.388Z,459.3077
2023-04-07T03:23:22.893Z,462.5385
2023-04-07T03:24:24.246Z,455.3077
2023-04-07T03:25:25.773Z,456.6154
2023-04-07T03:26:27.187Z,457.8462
2023-04-07T03:27:28.585Z,459.5385
2023-04-07T03:28:30.938Z,458.7692
2023-04-07T03:29:31.510Z,461.6923
2023-04-07T03:30:32.951Z,463.0769
2023-04-07T03:31:34.329Z,464.0000
2023-04-07T03:32:35.872Z,462.6154
2023-04-07T03:33:37.284Z,463.5385
2023-04-07T03:34:38.691Z,463.3846
2023-04-07T03:35:40.189Z,464.0769
2023-04-07T03:36:41.613Z,462.5385
2023-04-07T03:37:42.977Z,465.3077
2023-04-07T03:38:44.360Z,465.8462
2023-04-07T03:39:45.892Z,466.2308
2023-04-07T03:40:47.413Z,462.1538
2023-04-07T03:41:48.847Z,464.0769
2023-04-07T03:42:50.228Z,462.0000
2023-04-07T03:43:51.843Z,457.4615
2023-04-07T03:44:53.113Z,456.9231
2023-04-07T03:45:54.645Z,454.6154
2023-04-07T03:46:56.054Z,451.2308
2023-04-07T03:47:57.496Z,450.5385
2023-04-07T03:48:58.840Z,451.5385
2023-04-07T03:50:00.324Z,454.8462
2023-04-07T03:51:01.788Z,456.7692
2023-04-07T03:52:03.250Z,460.0000
2023-04-07T03:53:04.704Z,463.6154
2023-04-07T03:54:06.071Z,463.7692
2023-04-07T03:55:07.507Z,465.8462
2023-04-07T03:56:09.007Z,469.6154
2023-04-07T03:57:10.466Z,464.3846
2023-04-07T03:58:11.855Z,460.3846
2023-04-07T03:59:13.378Z,460.5385
2023-04-07T04:00:14.732Z,462.0000
2023-04-07T04:01:16.211Z,464.6154
2023-04-07T04:02:17.727Z,466.5385
2023-04-07T04:03:19.218Z,466.4615
2023-04-07T04:04:20.586Z,467.5385
2023-04-07T04:05:21.958Z,467.5385
2023-04-07T04:06:23.388Z,466.5385
2023-04-07T04:07:24.852Z,463.6154
2023-04-07T04:08:26.272Z,456.0769
2023-04-07T04:09:27.750Z,459.7692
2023-04-07T04:10:29.161Z,461.5385
2023-04-07T04:11:30.646Z,461.8462
2023-04-07T04:12:32.084Z,462.6923
2023-04-07T04:13:33.557Z,463.6923
2023-04-07T04:14:34.986Z,466.3077
2023-04-07T04:15:36.440Z,469.8462
2023-04-07T04:16:37.762Z,470.9231
2023-04-07T04:17:39.333Z,472.5385
2023-04-07T04:18:40.750Z,473.2308
2023-04-07T04:19:42.047Z,471.4615
2023-04-07T04:20:43.574Z,471.0769
2023-04-07T04:21:45.062Z,471.9231
2023-04-07T04:22:46.512Z,472.3846
2023-04-07T04:23:47.924Z,471.4615
2023-04-07T04:24:49.445Z,470.2308
2023-04-07T04:25:50.850Z,472.2308
2023-04-07T04:26:52.258Z,472.1538
2023-04-07T04:27:53.806Z,471.6923
2023-04-07T04:28:55.151Z,468.3846
2023-04-07T04:29:56.581Z,466.6154
2023-04-07T04:30:58.032Z,463.3846
2023-04-07T04:31:59.535Z,460.0000
2023-04-07T04:33:00.921Z,459.8462
2023-04-07T04:34:02.401Z,459.5385
2023-04-07T04:35:03.771Z,459.3846
2023-04-07T04:36:05.072Z,459.0000
2023-04-07T04:37:06.746Z,460.5385
2023-04-07T04:38:09.033Z,462.7692
2023-04-07T04:39:09.961Z,465.5385
2023-04-07T04:40:11.034Z,466.1538
2023-04-07T04:41:12.470Z,467.3846
2023-04-07T04:42:13.848Z,468.2308
2023-04-07T04:43:15.294Z,469.3077
2023-04-07T04:44:16.737Z,466.8462
2023-04-07T04:45:18.142Z,466.7692
2023-04-07T04:46:19.689Z,465.6154
2023-04-07T04:47:21.283Z,466.5385
2023-04-07T04:48:22.655Z,467.6154
2023-04-07T04:49:24.504Z,468.3846
2023-04-07T04:50:25.454Z,468.3846
2023-04-07T04:51:26.981Z,467.8462
2023-04-07T04:52:28.397Z,466.6154
2023-04-07T04:53:29.871Z,464.3077
2023-04-07T04:54:31.293Z,462.3846
2023-04-07T04:55:32.700Z,459.4615
2023-04-07T04:56:34.254Z,459.1538
2023-04-07T04:57:35.687Z,457.9231
2023-04-07T04:58:37.068Z,460.6923
2023-04-07T04:59:38.469Z,464.0000
2023-04-07T05:00:39.956Z,465.6923
2023-04-07T05:01:42.110Z,466.8462
2023-04-07T05:02:42.841Z,465.3846
2023-04-07T05:03:44.598Z,467.7692
2023-04-07T05:04:45.828Z,468.5385
2023-04-07T05:05:47.158Z,469.9231
2023-04-07T05:06:48.541Z,471.1538
2023-04-07T05:07:50.039Z,471.8462
2023-04-07T05:08:51.473Z,472.2308
2023-04-07T05:09:52.905Z,472.6154
2023-04-07T05:10:54.320Z,472.0000
2023-04-07T05:11:55.753Z,471.1538
2023-04-07T05:12:57.199Z,471.3846
2023-04-07T05:13:58.637Z,470.5385
2023-04-07T05:15:00.081Z,469.1538
2023-04-07T05:16:01.559Z,467.7692
2023-04-07T05:17:02.934Z,464.2308
2023-04-07T05:18:04.363Z,463.3846
2023-04-07T05:19:05.824Z,461.0000
2023-04-07T05:20:07.226Z,461.6154
2023-04-07T05:21:08.658Z,462.1538
2023-04-07T05:22:10.100Z,465.0769
2023-04-07T05:23:11.641Z,468.4615
2023-04-07T05:24:13.018Z,472.1538
2023-04-07T05:25:14.493Z,473.6154
2023-04-07T05:26:15.894Z,472.9231
2023-04-07T05:27:17.346Z,471.8462
2023-04-07T05:28:18.791Z,473.8462
2023-04-07T05:29:20.296Z,473.4615
2023-04-07T05:30:21.678Z,472.4615
2023-04-07T05:31:23.129Z,470.6923
2023-04-07T05:32:24.575Z,469.4615
2023-04-07T05:33:25.891Z,469.5385
2023-04-07T05:34:28.390Z,471.0000
2023-04-07T05:35:28.836Z,470.2308
2023-04-07T05:36:30.397Z,468.0000
2023-04-07T05:37:31.735Z,467.2308
2023-04-07T05:38:33.069Z,467.0000
2023-04-07T05:39:34.633Z,466.6154
2023-04-07T05:40:37.592Z,460.6923
2023-04-07T05:41:37.498Z,459.3846
2023-04-07T05:42:38.936Z,460.8462
2023-04-07T05:43:40.341Z,462.8462
2023-04-07T05:44:41.744Z,467.0000
2023-04-07T05:45:43.318Z,467.4615
2023-04-07T05:46:45.488Z,469.6154
2023-04-07T05:47:46.184Z,470.5385
2023-04-07T05:48:47.573Z,471.6923
2023-04-07T05:49:49.010Z,470.5385
2023-04-07T05:50:50.437Z,467.4615
2023-04-07T05:51:51.881Z,467.0000
2023-04-07T05:52:53.293Z,467.5385
2023-04-07T05:53:54.751Z,469.0769
2023-04-07T05:54:56.249Z,469.0000
2023-04-07T05:55:57.670Z,466.0000
2023-04-07T05:56:59.146Z,464.8462
2023-04-07T05:58:00.461Z,467.4615
2023-04-07T05:59:01.924Z,465.5385
2023-04-07T06:00:03.358Z,464.7692
2023-04-07T06:01:04.721Z,465.0769
2023-04-07T06:02:06.203Z,456.3077
2023-04-07T06:03:07.846Z,455.7692
2023-04-07T06:04:09.025Z,457.9231
2023-04-07T06:05:10.577Z,457.7692
2023-04-07T06:06:11.903Z,457.9231
2023-04-07T06:07:13.343Z,459.2308
2023-04-07T06:08:14.807Z,462.7692
2023-04-07T06:09:16.200Z,463.7692
2023-04-07T06:10:18.453Z,463.3077
2023-04-07T06:11:19.133Z,464.4615
2023-04-07T06:12:20.567Z,464.1538
2023-04-07T06:13:22.010Z,464.6923
2023-04-07T06:14:23.396Z,464.2308
2023-04-07T06:15:25.029Z,465.3077
2023-04-07T06:16:26.300Z,466.0000
2023-04-07T06:17:27.731Z,465.7692
2023-04-07T06:18:29.164Z,463.2308
2023-04-07T06:19:30.604Z,461.4615
2023-04-07T06:20:32.048Z,462.6923
2023-04-07T06:21:33.464Z,459.3077
2023-04-07T06:22:34.904Z,455.1538
2023-04-07T06:23:36.295Z,451.6923
2023-04-07T06:24:37.788Z,447.4615
2023-04-07T06:25:39.252Z,444.9231
2023-04-07T06:26:40.655Z,448.5385
2023-04-07T06:27:42.086Z,451.0769
2023-04-07T06:28:43.578Z,451.8462
2023-04-07T06:29:45.014Z,453.3846
2023-04-07T06:30:46.520Z,456.5385
2023-04-07T06:31:48.244Z,457.6154
2023-04-07T06:32:49.365Z,458.1538
2023-04-07T06:33:51.074Z,459.0000
2023-04-07T06:34:52.173Z,459.0000
2023-04-07T06:35:53.605Z,459.6923
2023-04-07T06:36:55.903Z,456.6154
2023-04-07T06:37:56.479Z,453.1538
2023-04-07T06:38:57.913Z,452.2308
2023-04-07T06:39:59.393Z,455.7692
2023-04-07T06:41:00.911Z,456.6923
2023-04-07T06:42:02.243Z,457.5385
2023-04-07T06:43:03.660Z,456.4615
2023-04-07T06:44:05.509Z,456.7692
2023-04-07T06:45:06.521Z,453.6154
2023-04-07T06:46:08.142Z,448.2308
2023-04-07T06:47:09.691Z,444.3846
2023-04-07T06:48:11.075Z,442.0769
2023-04-07T06:49:12.457Z,437.7692
2023-04-07T06:50:13.935Z,437.7692
2023-04-07T06:51:15.388Z,442.0769
2023-04-07T06:52:16.809Z,443.2308
2023-04-07T06:53:18.260Z,444.8462
2023-04-07T06:54:19.738Z,446.8462
2023-04-07T06:55:21.188Z,445.0769
2023-04-07T06:56:23.437Z,444.0769
2023-04-07T06:57:26.919Z,445.5385
2023-04-07T06:58:25.432Z,445.6923
2023-04-07T06:59:26.837Z,446.0000
2023-04-07T07:00:28.272Z,446.6154
2023-04-07T07:01:30.219Z,445.6923
2023-04-07T07:02:31.401Z,447.2308
2023-04-07T07:03:32.569Z,448.3846
2023-04-07T07:04:34.135Z,450.6154
2023-04-07T07:05:35.787Z,447.3077
2023-04-07T07:06:36.993Z,442.6923
2023-04-07T07:07:38.371Z,441.7692
2023-04-07T07:08:39.848Z,436.3077
2023-04-07T07:09:41.230Z,436.9231
2023-04-07T07:10:42.655Z,434.8462
2023-04-07T07:11:44.195Z,434.3077
2023-04-07T07:12:45.620Z,435.7692
2023-04-07T07:13:47.228Z,437.3846
2023-04-07T07:14:48.486Z,441.8462
2023-04-07T07:15:49.970Z,447.0000
2023-04-07T07:16:51.578Z,449.0000
2023-04-07T07:17:52.841Z,450.4615
2023-04-07T07:18:54.200Z,450.9231
2023-04-07T07:19:55.699Z,448.0769
2023-04-07T07:20:57.079Z,447.1538
2023-04-07T07:21:58.625Z,445.3846
2023-04-07T07:22:59.831Z,445.2308
2023-04-07T07:24:01.436Z,447.2308
2023-04-07T07:25:02.876Z,448.1538
2023-04-07T07:26:04.319Z,447.9231
2023-04-07T07:27:05.734Z,449.3846
2023-04-07T07:28:07.157Z,447.1538
2023-04-07T07:29:08.526Z,448.0769
2023-04-07T07:30:10.049Z,447.7692
2023-04-07T07:31:11.477Z,448.4615
2023-04-07T07:32:12.951Z,450.6923
2023-04-07T07:33:14.344Z,448.9231
2023-04-07T07:34:15.770Z,460.1538
2023-04-07T07:35:17.224Z,467.9231
2023-04-07T07:36:18.619Z,470.5385
2023-04-07T07:37:20.935Z,473.7692
2023-04-07T07:38:21.498Z,476.1538
2023-04-07T07:39:23.077Z,478.0000
2023-04-07T07:40:24.374Z,476.6923
2023-04-07T07:41:26.086Z,474.8462
2023-04-07T07:42:27.280Z,476.0769
2023-04-07T07:43:28.686Z,477.5385
2023-04-07T07:44:32.437Z,479.1538
2023-04-07T07:45:31.545Z,478.3846
2023-04-07T07:46:33.048Z,476.6154
2023-04-07T07:47:34.536Z,475.7692
2023-04-07T07:48:35.881Z,471.3846
2023-04-07T07:49:37.302Z,471.3846
2023-04-07T07:50:38.762Z,469.6923
2023-04-07T07:51:40.158Z,471.0769
2023-04-07T07:52:42.089Z,469.4615
2023-04-07T07:53:43.090Z,462.1538
2023-04-07T07:54:44.525Z,455.8462
2023-04-07T07:55:45.943Z,451.6154
2023-04-07T07:56:47.468Z,453.2308
2023-04-07T07:57:48.863Z,458.6154
2023-04-07T07:58:50.371Z,458.9231
2023-04-07T07:59:51.798Z,458.1538
2023-04-07T08:00:53.262Z,460.7692
2023-04-07T08:01:54.643Z,464.0000
2023-04-07T08:02:56.220Z,465.1538
2023-04-07T08:03:57.567Z,463.3077
2023-04-07T08:04:59.046Z,463.4615
2023-04-07T08:06:00.324Z,466.6923
2023-04-07T08:07:01.887Z,469.0000
2023-04-07T08:08:03.565Z,472.3077
2023-04-07T08:09:04.843Z,472.0000
2023-04-07T08:10:06.221Z,469.3077
2023-04-07T08:11:07.584Z,466.0000
2023-04-07T08:12:09.094Z,464.7692
2023-04-07T08:13:10.604Z,464.6923
2023-04-07T08:14:11.927Z,459.9231
2023-04-07T08:15:13.212Z,460.6923
2023-04-07T08:16:15.004Z,458.6154
2023-04-07T08:17:16.227Z,455.0000
2023-04-07T08:18:18.553Z,453.2308
2023-04-07T08:19:19.115Z,454.0000
2023-04-07T08:20:20.595Z,452.3846
2023-04-07T08:21:22.052Z,455.4615
2023-04-07T08:22:23.375Z,457.4615
2023-04-07T08:23:24.918Z,458.9231
2023-04-07T08:24:26.272Z,460.6923
2023-04-07T08:25:27.597Z,462.3077
2023-04-07T08:26:29.216Z,463.9231
2023-04-07T08:27:30.568Z,461.0769
2023-04-07T08:28:32.230Z,458.9231
2023-04-07T08:29:33.497Z,456.9231
2023-04-07T08:30:34.901Z,456.0769
2023-04-07T08:31:36.398Z,459.2308
2023-04-07T08:32:37.810Z,459.3846
2023-04-07T08:33:39.244Z,457.0000
2023-04-07T08:34:40.692Z,459.4615
2023-04-07T08:35:42.108Z,456.8462
2023-04-07T08:36:44.142Z,454.5385
2023-04-07T08:37:45.030Z,448.3846
2023-04-07T08:38:46.426Z,442.7692
2023-04-07T08:39:47.765Z,449.2308
2023-04-07T08:40:49.353Z,445.3077
2023-04-07T08:41:50.766Z,446.3846
2023-04-07T08:42:52.159Z,448.2308
2023-04-07T08:43:53.579Z,448.9231
2023-04-07T08:44:54.998Z,448.3077
2023-04-07T08:45:56.471Z,451.2308
2023-04-07T08:46:57.932Z,453.2308
2023-04-07T08:47:59.468Z,454.0769
2023-04-07T08:49:00.775Z,455.0000
2023-04-07T08:50:02.305Z,450.3077
2023-04-07T08:51:03.807Z,449.9231
2023-04-07T08:52:05.810Z,449.8462
2023-04-07T08:53:07.459Z,450.4615
2023-04-07T08:54:08.051Z,449.6923
2023-04-07T08:55:09.486Z,446.7692
2023-04-07T08:56:10.941Z,448.0000
2023-04-07T08:57:12.359Z,447.6154
2023-04-07T08:58:13.806Z,447.6154
2023-04-07T08:59:15.371Z,444.3846
2023-04-07T09:00:17.453Z,441.4615
2023-04-07T09:01:18.196Z,432.4615
2023-04-07T09:02:19.645Z,433.3846
2023-04-07T09:03:21.142Z,434.3077
2023-04-07T09:04:22.379Z,434.4615
2023-04-07T09:05:23.898Z,436.7692
2023-04-07T09:06:25.320Z,438.6923
2023-04-07T09:07:26.823Z,440.5385
2023-04-07T09:08:28.223Z,444.6923
2023-04-07T09:09:29.729Z,446.0000
2023-04-07T09:10:31.200Z,446.7692
2023-04-07T09:11:32.639Z,448.1538
2023-04-07T09:12:34.094Z,450.5385
2023-04-07T09:13:35.436Z,450.6154
2023-04-07T09:14:36.943Z,450.6923
2023-04-07T09:15:38.944Z,445.5385
2023-04-07T09:16:39.876Z,444.5385
2023-04-07T09:17:41.339Z,447.6154
2023-04-07T09:18:42.723Z,449.4615
2023-04-07T09:19:44.060Z,449.3846
2023-04-07T09:20:45.716Z,446.0769
2023-04-07T09:21:46.846Z,442.5385
2023-04-07T09:22:48.383Z,439.0000
2023-04-07T09:23:50.212Z,430.6154
2023-04-07T09:24:51.267Z,428.5385
2023-04-07T09:25:52.759Z,429.9231
2023-04-07T09:26:54.170Z,434.7692
2023-04-07T09:27:55.584Z,440.1538
2023-04-07T09:28:56.955Z,443.1538
2023-04-07T09:29:58.438Z,443.7692
2023-04-07T09:30:59.956Z,444.6923
2023-04-07T09:32:01.402Z,444.3077
2023-04-07T09:33:02.818Z,446.2308
2023-04-07T09:34:04.222Z,447.3846
2023-04-07T09:35:05.869Z,447.2308
2023-04-07T09:36:07.154Z,449.2308
2023-04-07T09:37:08.530Z,449.7692
2023-04-07T09:38:10.025Z,448.9231
2023-04-07T09:39:11.396Z,445.6154
2023-04-07T09:40:12.800Z,445.5385
2023-04-07T09:41:14.301Z,445.5385
2023-04-07T09:42:15.703Z,446.0000
2023-04-07T09:43:17.094Z,443.1538
2023-04-07T09:44:18.598Z,440.7692
2023-04-07T09:45:33.184Z,436.6154
2023-04-07T09:46:21.603Z,432.0000
2023-04-07T09:47:22.834Z,432.0769
2023-04-07T09:48:24.357Z,432.2308
2023-04-07T09:49:25.733Z,430.7692
2023-04-07T09:50:27.188Z,434.0000
2023-04-07T09:51:28.719Z,438.9231
2023-04-07T09:52:30.149Z,441.2308
2023-04-07T09:53:31.589Z,439.6923
2023-04-07T09:54:32.928Z,442.0769
2023-04-07T09:55:34.412Z,442.0769
2023-04-07T09:56:35.869Z,443.4615
2023-04-07T09:57:37.222Z,442.6923
2023-04-07T09:58:38.638Z,442.3846
2023-04-07T09:59:40.102Z,441.2308
2023-04-07T10:00:41.698Z,442.5385
2023-04-07T10:01:43.224Z,443.6923
2023-04-07T10:02:44.551Z,443.6154
2023-04-07T10:03:46.317Z,441.6923
2023-04-07T10:04:47.286Z,437.5385
2023-04-07T10:05:48.821Z,437.0000
2023-04-07T10:06:50.235Z,437.5385
2023-04-07T10:07:51.535Z,433.6923
2023-04-07T10:08:53.159Z,429.7692
2023-04-07T10:09:54.567Z,430.1538
2023-04-07T10:10:55.873Z,435.7692
2023-04-07T10:11:57.471Z,437.0769
2023-04-07T10:12:58.814Z,438.7692
2023-04-07T10:14:00.293Z,442.0769
2023-04-07T10:15:01.641Z,440.6923
2023-04-07T10:16:03.192Z,441.0000
2023-04-07T10:17:04.710Z,439.0000
2023-04-07T10:18:06.109Z,438.7692
2023-04-07T10:19:07.419Z,441.2308
2023-04-07T10:20:08.973Z,440.2308
2023-04-07T10:21:10.276Z,441.5385
2023-04-07T10:22:11.765Z,443.0000
2023-04-07T10:23:13.166Z,443.7692
2023-04-07T10:24:14.505Z,441.0769
2023-04-07T10:25:16.087Z,438.3846
2023-04-07T10:26:17.480Z,436.9231
2023-04-07T10:27:18.985Z,433.6154
2023-04-07T10:28:20.365Z,431.6154
2023-04-07T10:29:21.894Z,429.3077
2023-04-07T10:30:23.344Z,421.4615
2023-04-07T10:31:24.728Z,416.1538
2023-04-07T10:32:26.751Z,418.2308
2023-04-07T10:33:27.455Z,420.4615
2023-04-07T10:34:28.976Z,425.4615
2023-04-07T10:35:30.495Z,427.2308
2023-04-07T10:36:31.904Z,430.6154
2023-04-07T10:37:33.362Z,434.2308
2023-04-07T10:38:34.749Z,436.1538
2023-04-07T10:39:36.196Z,433.2308
2023-04-07T10:40:37.707Z,433.0769
2023-04-07T10:41:39.178Z,432.6923
2023-04-07T10:42:40.591Z,433.9231
2023-04-07T10:43:42.214Z,434.3077
2023-04-07T10:44:43.282Z,433.1538
2023-04-07T10:45:44.771Z,433.0000
2023-04-07T10:46:46.222Z,433.9231
2023-04-07T10:47:48.642Z,430.8462
2023-04-07T10:48:49.091Z,429.5385
2023-04-07T10:49:50.479Z,429.0000
2023-04-07T10:50:52.071Z,426.5385
2023-04-07T10:51:53.345Z,425.5385
2023-04-07T10:52:54.895Z,423.3077
2023-04-07T10:53:56.295Z,420.8462
2023-04-07T10:54:57.755Z,423.8462
2023-04-07T10:55:59.197Z,426.1538
2023-04-07T10:57:00.545Z,424.5385
2023-04-07T10:58:02.119Z,426.5385
2023-04-07T10:59:03.532Z,430.3077
2023-04-07T11:00:04.939Z,431.0000
2023-04-07T11:01:06.306Z,431.4615
2023-04-07T11:02:07.840Z,432.6154
2023-04-07T11:03:09.378Z,430.9231
2023-04-07T11:04:10.709Z,430.2308
2023-04-07T11:05:12.083Z,431.0000
2023-04-07T11:06:13.477Z,430.9231
2023-04-07T11:07:15.024Z,432.0769
2023-04-07T11:08:16.472Z,431.6923
2023-04-07T11:09:17.859Z,432.9231
2023-04-07T11:10:20.196Z,433.9231
2023-04-07T11:11:20.766Z,430.6154
2023-04-07T11:12:22.182Z,427.1538
2023-04-07T11:13:23.682Z,427.0000
2023-04-07T11:14:24.978Z,422.6923
2023-04-07T11:15:26.444Z,418.3846
2023-04-07T11:16:27.977Z,417.0769
2023-04-07T11:17:29.381Z,417.5385
2023-04-07T11:18:30.816Z,422.7692
2023-04-07T11:19:32.224Z,424.9231
2023-04-07T11:20:33.681Z,425.7692
2023-04-07T11:21:35.086Z,426.7692
2023-04-07T11:22:36.521Z,426.4615
2023-04-07T11:23:38.238Z,426.6923
2023-04-07T11:24:39.466Z,428.3077
2023-04-07T11:25:40.855Z,429.9231
2023-04-07T11:26:42.343Z,432.8462
2023-04-07T11:27:43.756Z,432.4615
2023-04-07T11:28:45.283Z,428.7692
2023-04-07T11:29:46.610Z,430.2308
2023-04-07T11:30:48.100Z,427.0000
2023-04-07T11:31:49.545Z,429.0000
2023-04-07T11:32:50.905Z,429.7692
2023-04-07T11:33:52.374Z,428.6154
2023-04-07T11:34:53.801Z,422.2308
2023-04-07T11:35:55.239Z,417.3846
2023-04-07T11:36:56.759Z,416.6923
2023-04-07T11:37:58.128Z,416.9231
2023-04-07T11:38:59.636Z,415.6923
2023-04-07T11:40:00.995Z,418.1538
2023-04-07T11:41:02.526Z,420.9231
2023-04-07T11:42:03.903Z,423.6154
2023-04-07T11:43:05.299Z,424.5385
2023-04-07T11:44:06.826Z,427.3077
2023-04-07T11:45:08.682Z,430.0000
2023-04-07T11:46:09.591Z,434.1538
2023-04-07T11:47:11.111Z,434.6154
2023-04-07T11:48:12.494Z,433.3846
2023-04-07T11:49:14.541Z,433.0769
2023-04-07T11:50:15.335Z,428.7692
2023-04-07T11:51:16.807Z,427.1538
2023-04-07T11:52:18.239Z,425.8462
2023-04-07T11:53:19.829Z,428.4615
2023-04-07T11:54:21.160Z,431.1538
2023-04-07T11:55:22.617Z,432.1538
2023-04-07T11:56:24.030Z,426.3846
2023-04-07T11:57:25.493Z,421.2308
2023-04-07T11:58:26.871Z,421.4615
2023-04-07T11:59:28.389Z,419.3077
2023-04-07T12:00:29.722Z,413.5385
2023-04-07T12:01:31.215Z,416.6923